createdAt,value
2018-07-02T00:00:28.939Z,99.40
2018-07-02T00:02:56.577Z,99.80
2018-07-02T00:06:39.164Z,99.90
2018-07-02T00:09:06.904Z,99.90
2018-07-02T00:11:34.524Z,99.90
2018-07-02T00:14:02.143Z,99.90
2018-07-02T00:16:29.930Z,99.90
2018-07-02T00:18:57.585Z,99.90
2018-07-02T00:21:25.208Z,99.90
2018-07-02T00:23:52.888Z,99.90
2018-07-02T00:26:20.520Z,99.90
2018-07-02T00:28:48.104Z,99.90
2018-07-02T00:31:15.744Z,99.90
2018-07-02T00:33:43.442Z,99.90
2018-07-02T00:36:11.080Z,99.90
2018-07-02T00:38:38.987Z,99.90
2018-07-02T00:41:06.839Z,99.90
2018-07-02T00:43:35.148Z,99.90
2018-07-02T00:46:03.514Z,99.90
2018-07-02T00:48:31.688Z,99.90
2018-07-02T00:50:59.333Z,99.90
2018-07-02T00:53:26.988Z,99.90
2018-07-02T00:55:54.600Z,99.90
2018-07-02T00:58:22.312Z,99.90
2018-07-02T01:00:49.963Z,99.90
2018-07-02T01:03:18.344Z,99.90
2018-07-02T01:05:46.009Z,99.90
2018-07-02T01:08:19.809Z,99.90
2018-07-02T01:10:47.492Z,99.90
2018-07-02T01:13:15.144Z,99.90
2018-07-02T01:15:42.751Z,99.90
2018-07-02T01:18:10.369Z,99.90
2018-07-02T01:20:38.104Z,99.90
2018-07-02T01:23:06.093Z,99.90
2018-07-02T01:25:33.724Z,99.90
2018-07-02T01:28:01.304Z,99.90
2018-07-02T01:30:28.970Z,99.90
2018-07-02T01:32:56.592Z,99.90
2018-07-02T01:35:24.992Z,99.90
2018-07-02T01:37:52.591Z,99.90
2018-07-02T01:40:21.219Z,99.90
2018-07-02T01:42:48.829Z,99.90
2018-07-02T01:45:16.492Z,99.90
2018-07-02T01:47:44.112Z,99.90
2018-07-02T01:50:11.923Z,99.90
2018-07-02T01:52:39.707Z,99.90
2018-07-02T01:55:07.240Z,99.90
2018-07-02T01:57:34.864Z,99.90
2018-07-02T02:00:02.537Z,99.90
2018-07-02T02:02:30.184Z,99.90
2018-07-02T02:04:57.786Z,99.90
2018-07-02T02:07:25.456Z,99.90
2018-07-02T02:09:53.831Z,99.90
2018-07-02T02:12:21.523Z,99.90
2018-07-02T02:14:49.169Z,99.90
2018-07-02T02:17:16.789Z,99.90
2018-07-02T02:19:44.427Z,99.90
2018-07-02T02:22:12.599Z,99.90
2018-07-02T02:24:40.225Z,99.90
2018-07-02T02:29:35.450Z,99.90
2018-07-02T02:32:03.224Z,99.90
2018-07-02T02:34:31.453Z,99.90
2018-07-02T02:36:59.132Z,99.90
2018-07-02T02:39:26.833Z,99.90
2018-07-02T02:41:54.469Z,99.90
2018-07-02T02:44:22.140Z,99.90
2018-07-02T02:46:50.381Z,99.90
2018-07-02T02:49:18.021Z,99.90
2018-07-02T02:51:45.685Z,99.90
2018-07-02T02:54:14.828Z,99.90
2018-07-02T02:56:43.469Z,99.90
2018-07-02T02:59:11.369Z,99.90
2018-07-02T03:01:39.009Z,99.90
2018-07-02T03:04:06.683Z,99.90
2018-07-02T03:06:36.164Z,99.90
2018-07-02T03:09:06.107Z,99.90
2018-07-02T03:11:34.733Z,99.90
2018-07-02T03:14:02.432Z,99.90
2018-07-02T03:16:30.145Z,99.90
2018-07-02T03:18:57.737Z,99.90
2018-07-02T03:21:26.024Z,99.90
2018-07-02T03:23:53.662Z,99.90
2018-07-02T03:26:21.277Z,99.90
2018-07-02T03:28:48.916Z,99.90
2018-07-02T03:31:16.540Z,99.90
2018-07-02T03:33:44.181Z,99.90
2018-07-02T03:36:11.889Z,99.90
2018-07-02T03:38:39.512Z,99.90
2018-07-02T03:41:07.192Z,99.90
2018-07-02T03:43:34.922Z,99.90
2018-07-02T03:46:02.604Z,99.90
2018-07-02T03:48:30.259Z,99.90
2018-07-02T03:50:58.516Z,99.90
2018-07-02T03:53:26.176Z,99.90
2018-07-02T03:55:53.956Z,99.90
2018-07-02T03:58:21.632Z,99.90
2018-07-02T04:00:49.285Z,99.90
2018-07-02T04:03:17.121Z,99.90
2018-07-02T04:05:44.765Z,99.90
2018-07-02T04:08:12.383Z,99.90
2018-07-02T04:10:40.010Z,99.90
2018-07-02T04:13:07.647Z,99.90
2018-07-02T04:15:37.313Z,99.90
2018-07-02T04:18:04.940Z,99.90
2018-07-02T04:20:32.567Z,99.90
2018-07-02T04:23:00.300Z,99.90
2018-07-02T04:25:27.994Z,99.90
2018-07-02T04:27:55.564Z,99.90
2018-07-02T04:30:23.172Z,99.90
2018-07-02T04:32:50.806Z,99.90
2018-07-02T04:35:18.400Z,99.90
2018-07-02T04:37:46.518Z,99.90
2018-07-02T04:40:14.152Z,99.90
2018-07-02T04:42:41.725Z,99.90
2018-07-02T04:45:09.322Z,99.90
2018-07-02T04:47:36.952Z,99.90
2018-07-02T04:50:04.763Z,99.90
2018-07-02T04:52:33.028Z,99.90
2018-07-02T04:55:00.633Z,99.90
2018-07-02T04:57:28.284Z,99.90
2018-07-02T04:59:55.873Z,99.90
2018-07-02T05:02:23.462Z,99.90
2018-07-02T05:04:51.047Z,99.90
2018-07-02T05:07:18.648Z,99.90
2018-07-02T05:09:47.231Z,99.90
2018-07-02T05:12:14.795Z,99.90
2018-07-02T05:14:43.344Z,99.90
2018-07-02T05:17:10.780Z,99.90
2018-07-02T05:19:38.673Z,99.90
2018-07-02T05:22:06.536Z,99.90
2018-07-02T05:24:34.184Z,99.90
2018-07-02T05:27:01.790Z,99.90
2018-07-02T05:29:29.450Z,99.90
2018-07-02T05:31:58.084Z,99.90
2018-07-02T05:34:25.656Z,99.90
2018-07-02T05:36:53.288Z,99.90
2018-07-02T05:39:21.628Z,99.90
2018-07-02T05:41:49.233Z,99.90
2018-07-02T05:44:16.808Z,99.90
2018-07-02T05:46:44.432Z,99.90
2018-07-02T05:49:12.001Z,99.90
2018-07-02T05:51:39.572Z,99.90
2018-07-02T05:54:08.236Z,99.90
2018-07-02T05:56:35.864Z,99.90
2018-07-02T05:59:03.536Z,99.90
2018-07-02T06:01:31.396Z,99.90
2018-07-02T06:03:58.956Z,99.90
2018-07-02T06:06:27.566Z,99.90
2018-07-02T06:08:55.902Z,99.90
2018-07-02T06:11:23.490Z,99.90
2018-07-02T06:13:51.092Z,99.90
2018-07-02T06:16:18.704Z,99.90
2018-07-02T06:18:46.396Z,99.90
2018-07-02T06:23:41.796Z,99.90
2018-07-02T06:26:09.429Z,99.90
2018-07-02T06:28:37.024Z,99.90
2018-07-02T06:31:04.669Z,99.90
2018-07-02T06:33:32.235Z,99.90
2018-07-02T06:35:59.821Z,99.90
2018-07-02T06:38:27.402Z,99.90
2018-07-02T06:40:54.965Z,99.90
2018-07-02T06:45:50.664Z,99.90
2018-07-02T06:48:18.253Z,99.90
2018-07-02T06:50:45.829Z,99.90
2018-07-02T06:53:14.420Z,99.90
2018-07-02T06:55:42.022Z,99.90
2018-07-02T06:58:09.733Z,99.90
2018-07-02T07:00:37.341Z,99.90
2018-07-02T07:03:05.147Z,99.90
2018-07-02T07:05:32.792Z,99.90
2018-07-02T07:10:34.773Z,99.90
2018-07-02T07:15:29.923Z,99.90
2018-07-02T07:17:57.473Z,99.90
2018-07-02T07:20:25.801Z,99.90
2018-07-02T07:22:53.397Z,99.90
2018-07-02T07:25:20.964Z,99.90
2018-07-02T07:27:48.516Z,99.90
2018-07-02T07:30:16.113Z,99.90
2018-07-02T07:32:43.699Z,99.90
2018-07-02T07:35:11.294Z,99.90
2018-07-02T07:37:38.877Z,99.90
2018-07-02T07:40:06.448Z,99.90
2018-07-02T07:42:34.034Z,99.90
2018-07-02T07:45:01.616Z,99.90
2018-07-02T07:47:29.215Z,99.90
2018-07-02T07:49:56.817Z,99.90
2018-07-02T07:52:24.444Z,99.90
2018-07-02T07:57:19.572Z,99.90
2018-07-02T07:59:47.147Z,99.90
2018-07-02T08:02:14.709Z,99.90
2018-07-02T08:04:42.313Z,99.90
2018-07-02T08:07:10.749Z,99.90
2018-07-02T08:09:38.384Z,99.00
2018-07-02T08:12:06.011Z,97.40
2018-07-02T08:14:33.672Z,97.40
2018-07-02T08:17:01.612Z,96.60
2018-07-02T08:19:30.260Z,95.10
2018-07-02T08:21:58.408Z,96.50
2018-07-02T08:24:25.991Z,95.40
2018-07-02T08:26:53.689Z,94.80
2018-07-02T08:29:21.265Z,94.20
2018-07-02T08:31:49.052Z,95.40
2018-07-02T08:34:16.656Z,95.10
2018-07-02T08:36:44.269Z,93.50
2018-07-02T08:39:12.328Z,93.20
2018-07-02T08:41:40.171Z,92.40
2018-07-02T08:44:08.804Z,92.40
2018-07-02T08:46:36.400Z,92.90
2018-07-02T08:49:04.320Z,91.80
2018-07-02T08:51:31.908Z,91.90
2018-07-02T08:53:59.805Z,92.00
2018-07-02T08:56:28.040Z,91.30
2018-07-02T08:58:55.625Z,90.70
2018-07-02T09:01:23.280Z,90.90
2018-07-02T09:03:50.965Z,90.50
2018-07-02T09:06:18.558Z,91.00
2018-07-02T09:08:46.135Z,90.60
2018-07-02T09:13:41.445Z,90.10
2018-07-02T09:16:09.813Z,89.40
2018-07-02T09:18:37.384Z,90.60
2018-07-02T09:21:05.224Z,90.10
2018-07-02T09:23:32.805Z,87.90
2018-07-02T09:26:00.348Z,90.20
2018-07-02T09:28:27.932Z,87.70
2018-07-02T09:30:55.825Z,86.80
2018-07-02T09:33:23.417Z,87.00
2018-07-02T09:35:50.992Z,87.90
2018-07-02T09:38:18.616Z,85.30
2018-07-02T09:40:46.204Z,85.70
2018-07-02T09:43:13.773Z,86.50
2018-07-02T09:45:41.373Z,86.50
2018-07-02T09:48:08.924Z,83.20
2018-07-02T09:50:36.548Z,84.80
2018-07-02T09:53:04.381Z,85.90
2018-07-02T09:55:31.956Z,83.80
2018-07-02T09:57:59.864Z,85.50
2018-07-02T10:00:27.438Z,88.10
2018-07-02T10:02:55.075Z,86.20
2018-07-02T10:05:22.702Z,84.70
2018-07-02T10:07:50.312Z,87.60
2018-07-02T10:10:17.937Z,83.90
2018-07-02T10:12:45.537Z,83.00
2018-07-02T10:15:13.156Z,82.30
2018-07-02T10:17:40.736Z,80.80
2018-07-02T10:20:08.344Z,86.00
2018-07-02T10:25:03.951Z,80.30
2018-07-02T10:27:31.533Z,77.30
2018-07-02T10:29:59.124Z,79.00
2018-07-02T10:32:26.773Z,81.50
2018-07-02T10:34:54.340Z,82.80
2018-07-02T10:37:22.976Z,81.40
2018-07-02T10:39:50.619Z,77.10
2018-07-02T10:42:18.202Z,74.80
2018-07-02T10:44:45.847Z,74.90
2018-07-02T10:47:13.428Z,77.40
2018-07-02T10:49:40.992Z,72.50
2018-07-02T10:52:08.583Z,77.90
2018-07-02T10:54:36.205Z,75.70
2018-07-02T10:57:03.871Z,72.50
2018-07-02T10:59:31.452Z,79.30
2018-07-02T11:01:59.064Z,73.60
2018-07-02T11:04:27.369Z,79.10
2018-07-02T11:06:54.969Z,76.00
2018-07-02T11:09:22.520Z,72.90
2018-07-02T11:11:50.105Z,75.60
2018-07-02T11:14:17.701Z,72.80
2018-07-02T11:16:45.280Z,72.60
2018-07-02T11:19:12.873Z,76.40
2018-07-02T11:21:40.633Z,72.90
2018-07-02T11:24:08.233Z,71.60
2018-07-02T11:26:35.785Z,71.60
2018-07-02T11:29:03.450Z,72.20
2018-07-02T11:31:31.003Z,70.10
2018-07-02T11:33:58.577Z,69.00
2018-07-02T11:36:26.152Z,66.90
2018-07-02T11:38:53.711Z,65.90
2018-07-02T11:41:21.284Z,67.40
2018-07-02T11:43:48.829Z,65.20
2018-07-02T11:46:17.402Z,63.70
2018-07-02T11:48:45.147Z,69.80
2018-07-02T11:51:12.737Z,67.40
2018-07-02T11:53:40.832Z,68.90
2018-07-02T11:56:08.490Z,64.90
2018-07-02T11:58:36.076Z,64.20
2018-07-02T12:03:31.144Z,67.70
2018-07-02T12:05:58.685Z,64.70
2018-07-02T12:08:26.308Z,69.70
2018-07-02T12:10:53.908Z,69.00
2018-07-02T12:13:21.485Z,68.50
2018-07-02T12:15:49.072Z,69.80
2018-07-02T12:18:16.632Z,67.60
2018-07-02T12:20:44.880Z,64.30
2018-07-02T12:23:12.457Z,62.30
2018-07-02T12:25:40.044Z,62.70
2018-07-02T12:28:07.624Z,68.20
2018-07-02T12:30:36.308Z,71.30
2018-07-02T12:33:03.940Z,70.70
2018-07-02T12:35:31.512Z,66.80
2018-07-02T12:37:59.120Z,64.20
2018-07-02T12:40:27.252Z,65.60
2018-07-02T12:42:54.867Z,63.60
2018-07-02T12:45:22.828Z,66.60
2018-07-02T12:47:51.100Z,58.70
2018-07-02T12:50:18.684Z,56.50
2018-07-02T12:52:46.280Z,52.20
2018-07-02T12:55:13.837Z,55.20
2018-07-02T12:57:41.391Z,54.80
2018-07-02T13:00:08.948Z,53.30
2018-07-02T13:02:36.505Z,51.80
2018-07-02T13:05:04.189Z,51.10
2018-07-02T13:07:31.731Z,50.40
2018-07-02T13:09:59.332Z,47.00
2018-07-02T13:12:26.905Z,46.00
2018-07-02T13:14:54.454Z,48.80
2018-07-02T13:17:22.045Z,44.30
2018-07-02T13:19:49.588Z,44.30
2018-07-02T13:22:17.208Z,50.20
2018-07-02T13:24:44.852Z,45.40
2018-07-02T13:27:12.444Z,47.80
2018-07-02T13:29:40.016Z,47.00
2018-07-02T13:32:07.607Z,46.90
2018-07-02T13:34:35.240Z,45.80
2018-07-02T13:37:02.873Z,42.90
2018-07-02T13:39:30.496Z,46.00
2018-07-02T13:41:58.161Z,46.00
2018-07-02T13:44:25.709Z,42.40
2018-07-02T13:46:53.288Z,44.30
2018-07-02T13:49:21.540Z,42.70
2018-07-02T13:51:49.121Z,42.60
2018-07-02T13:54:16.759Z,42.10
2018-07-02T13:56:44.381Z,39.80
2018-07-02T13:59:11.965Z,40.80
2018-07-02T14:01:39.592Z,42.60
2018-07-02T14:04:07.146Z,43.90
2018-07-02T14:06:34.741Z,40.10
2018-07-02T14:09:04.265Z,38.10
2018-07-02T14:11:32.124Z,41.40
2018-07-02T14:13:59.693Z,42.60
2018-07-02T14:16:27.289Z,39.20
2018-07-02T14:18:55.925Z,42.50
2018-07-02T14:21:23.509Z,41.90
2018-07-02T14:23:51.100Z,42.00
2018-07-02T14:26:18.649Z,41.00
2018-07-02T14:28:46.580Z,40.40
2018-07-02T14:31:14.160Z,39.40
2018-07-02T14:33:41.716Z,42.30
2018-07-02T14:36:09.324Z,44.50
2018-07-02T14:38:36.884Z,39.40
2018-07-02T14:41:04.785Z,40.60
2018-07-02T14:43:33.013Z,38.60
2018-07-02T14:46:00.584Z,37.70
2018-07-02T14:48:28.781Z,38.30
2018-07-02T14:50:57.111Z,39.00
2018-07-02T14:53:24.685Z,37.80
2018-07-02T14:55:52.265Z,36.80
2018-07-02T14:58:19.844Z,38.00
2018-07-02T15:00:47.384Z,35.50
2018-07-02T15:03:15.032Z,36.70
2018-07-02T15:08:10.120Z,35.70
2018-07-02T15:10:37.721Z,35.50
2018-07-02T15:13:05.290Z,36.90
2018-07-02T15:15:32.891Z,35.60
2018-07-02T15:18:00.467Z,36.40
2018-07-02T15:20:28.063Z,37.30
2018-07-02T15:22:55.631Z,35.60
2018-07-02T15:25:23.241Z,36.80
2018-07-02T15:27:50.820Z,35.40
2018-07-02T15:30:18.568Z,35.60
2018-07-02T15:32:46.200Z,38.60
2018-07-02T15:35:13.764Z,35.50
2018-07-02T15:37:41.317Z,36.60
2018-07-02T15:40:09.496Z,35.50
2018-07-02T15:42:37.052Z,37.40
2018-07-02T15:45:04.834Z,35.00
2018-07-02T15:47:32.440Z,36.70
2018-07-02T15:50:00.030Z,35.20
2018-07-02T15:52:28.709Z,37.40
2018-07-02T15:54:56.308Z,36.90
2018-07-02T15:57:23.900Z,37.00
2018-07-02T15:59:51.491Z,35.20
2018-07-02T16:02:20.092Z,36.50
2018-07-02T16:04:47.717Z,35.30
2018-07-02T16:07:15.847Z,38.10
2018-07-02T16:09:43.456Z,35.20
2018-07-02T16:12:11.176Z,36.80
2018-07-02T16:14:38.781Z,36.90
2018-07-02T16:17:06.370Z,37.80
2018-07-02T16:19:33.956Z,39.60
2018-07-02T16:22:01.716Z,39.20
2018-07-02T16:24:29.354Z,35.90
2018-07-02T16:26:56.932Z,36.90
2018-07-02T16:29:24.650Z,37.10
2018-07-02T16:31:52.856Z,36.90
2018-07-02T16:34:20.464Z,37.70
2018-07-02T16:36:48.191Z,36.30
2018-07-02T16:39:15.804Z,38.40
2018-07-02T16:41:43.368Z,36.40
2018-07-02T16:44:10.968Z,39.30
2018-07-02T16:46:39.509Z,37.40
2018-07-02T16:49:07.141Z,37.90
2018-07-02T16:51:34.809Z,38.10
2018-07-02T16:56:30.669Z,36.60
2018-07-02T16:58:58.406Z,36.20
2018-07-02T17:01:26.085Z,36.80
2018-07-02T17:03:53.684Z,39.10
2018-07-02T17:06:21.341Z,37.40
2018-07-02T17:08:48.905Z,39.80
2018-07-02T17:11:17.108Z,38.90
2018-07-02T17:13:44.704Z,39.70
2018-07-02T17:16:12.510Z,39.60
2018-07-02T17:18:40.108Z,41.20
2018-07-02T17:21:07.754Z,42.30
2018-07-02T17:23:35.717Z,44.50
2018-07-02T17:26:04.333Z,43.70
2018-07-02T17:28:31.967Z,47.30
2018-07-02T17:30:59.583Z,48.20
2018-07-02T17:33:27.176Z,48.30
2018-07-02T17:35:54.837Z,49.30
2018-07-02T17:38:22.384Z,49.50
2018-07-02T17:40:50.039Z,49.80
2018-07-02T17:43:17.610Z,50.10
2018-07-02T17:45:45.205Z,50.20
2018-07-02T17:48:12.777Z,50.90
2018-07-02T17:50:40.404Z,53.00
2018-07-02T17:53:07.992Z,53.50
2018-07-02T17:55:35.713Z,52.70
2018-07-02T17:58:03.341Z,54.00
2018-07-02T18:00:31.049Z,53.80
2018-07-02T18:02:59.058Z,55.00
2018-07-02T18:05:27.441Z,56.60
2018-07-02T18:07:55.039Z,55.50
2018-07-02T18:10:22.701Z,55.80
2018-07-02T18:12:51.416Z,56.00
2018-07-02T18:15:19.059Z,55.10
2018-07-02T18:17:46.710Z,54.70
2018-07-02T18:20:14.325Z,56.80
2018-07-02T18:25:10.172Z,56.60
2018-07-02T18:30:05.275Z,57.10
2018-07-02T18:32:32.878Z,57.30
2018-07-02T18:35:00.477Z,57.40
2018-07-02T18:37:28.092Z,56.20
2018-07-02T18:39:55.713Z,56.40
2018-07-02T18:42:23.320Z,56.40
2018-07-02T18:44:50.947Z,56.90
2018-07-02T18:47:18.564Z,58.30
2018-07-02T18:49:46.217Z,58.20
2018-07-02T18:52:13.818Z,57.50
2018-07-02T18:54:41.544Z,58.40
2018-07-02T18:57:09.177Z,57.80
2018-07-02T18:59:36.798Z,58.30
2018-07-02T19:02:04.499Z,57.10
2018-07-02T19:04:32.134Z,58.10
2018-07-02T19:06:59.733Z,59.80
2018-07-02T19:09:27.315Z,59.00
2018-07-02T19:11:54.905Z,57.50
2018-07-02T19:14:22.620Z,58.30
2018-07-02T19:16:50.207Z,62.00
2018-07-02T19:19:17.932Z,65.70
2018-07-02T19:21:45.607Z,67.70
2018-07-02T19:24:13.253Z,68.70
2018-07-02T19:26:40.893Z,68.90
2018-07-02T19:29:08.642Z,69.10
2018-07-02T19:31:36.242Z,70.70
2018-07-02T19:34:05.575Z,70.30
2018-07-02T19:36:33.169Z,71.30
2018-07-02T19:39:00.764Z,72.50
2018-07-02T19:41:28.359Z,73.90
2018-07-02T19:43:55.969Z,74.80
2018-07-02T19:46:23.713Z,74.10
2018-07-02T19:48:51.337Z,75.20
2018-07-02T19:51:19.000Z,73.30
2018-07-02T19:53:46.600Z,74.20
2018-07-02T19:56:15.337Z,75.50
2018-07-02T19:58:42.864Z,76.80
2018-07-02T20:01:10.495Z,76.20
2018-07-02T20:03:38.100Z,77.10
2018-07-02T20:08:33.341Z,78.80
2018-07-02T20:11:00.951Z,78.10
2018-07-02T20:13:28.583Z,79.40
2018-07-02T20:15:56.960Z,78.50
2018-07-02T20:18:24.640Z,77.80
2018-07-02T20:20:52.351Z,80.10
2018-07-02T20:23:20.979Z,79.60
2018-07-02T20:28:19.284Z,77.60
2018-07-02T20:30:46.899Z,78.10
2018-07-02T20:33:14.488Z,79.50
2018-07-02T20:35:42.116Z,80.70
2018-07-02T20:38:09.723Z,81.70
2018-07-02T20:40:37.374Z,81.60
2018-07-02T20:43:05.001Z,81.00
2018-07-02T20:45:32.610Z,82.10
2018-07-02T20:48:00.234Z,83.70
2018-07-02T20:50:27.840Z,84.90
2018-07-02T20:52:55.488Z,84.60
2018-07-02T20:55:23.075Z,85.40
2018-07-02T20:57:50.672Z,84.90
2018-07-02T21:00:18.289Z,86.30
2018-07-02T21:02:45.937Z,85.10
2018-07-02T21:05:13.664Z,87.10
2018-07-02T21:07:41.244Z,88.50
2018-07-02T21:10:08.866Z,87.30
2018-07-02T21:12:36.493Z,88.20
2018-07-02T21:15:04.450Z,88.90
2018-07-02T21:17:32.180Z,88.30
2018-07-02T21:19:59.792Z,88.50
2018-07-02T21:22:27.429Z,90.60
2018-07-02T21:24:54.992Z,91.50
2018-07-02T21:27:22.559Z,90.70
2018-07-02T21:29:50.140Z,90.90
2018-07-02T21:34:45.232Z,90.70
2018-07-02T21:37:12.889Z,90.70
2018-07-02T21:39:41.225Z,90.30
2018-07-02T21:42:08.926Z,90.00
2018-07-02T21:44:36.506Z,91.00
2018-07-02T21:47:04.233Z,92.60
2018-07-02T21:49:31.825Z,92.70
2018-07-02T21:51:59.420Z,92.50
2018-07-02T21:54:27.003Z,93.10
2018-07-02T21:56:55.316Z,92.80
2018-07-02T21:59:22.928Z,93.50
2018-07-02T22:01:51.547Z,92.80
2018-07-02T22:04:19.140Z,93.00
2018-07-02T22:06:46.738Z,94.20
2018-07-02T22:09:14.385Z,94.40
2018-07-02T22:11:41.977Z,93.40
2018-07-02T22:14:09.604Z,92.30
2018-07-02T22:16:37.281Z,93.00
2018-07-02T22:19:05.133Z,93.40
2018-07-02T22:21:33.463Z,93.50
2018-07-02T22:24:01.149Z,93.10
2018-07-02T22:26:32.105Z,93.40
2018-07-02T22:29:00.372Z,93.80
2018-07-02T22:31:28.029Z,93.60
2018-07-02T22:33:56.328Z,94.10
2018-07-02T22:36:24.050Z,95.10
2018-07-02T22:38:51.639Z,96.50
2018-07-02T22:41:19.319Z,96.90
2018-07-02T22:43:47.050Z,97.10
2018-07-02T22:46:14.604Z,96.90
2018-07-02T22:48:42.264Z,96.90
2018-07-02T22:51:09.864Z,96.90
2018-07-02T22:56:06.142Z,96.10
2018-07-02T22:58:33.761Z,96.20
2018-07-02T23:01:01.694Z,96.20
2018-07-02T23:03:29.324Z,96.50
2018-07-02T23:05:57.231Z,96.50
2018-07-02T23:08:26.615Z,96.10
2018-07-02T23:10:54.238Z,97.30
2018-07-02T23:13:21.948Z,98.20
2018-07-02T23:15:49.609Z,97.90
2018-07-02T23:18:17.208Z,98.70
2018-07-02T23:20:44.862Z,99.30
2018-07-02T23:23:12.489Z,99.40
2018-07-02T23:25:40.113Z,99.20
2018-07-02T23:28:07.726Z,98.00
2018-07-02T23:30:35.361Z,96.90
2018-07-02T23:33:02.984Z,96.80
2018-07-02T23:35:31.591Z,96.40
2018-07-02T23:37:59.168Z,96.70
2018-07-02T23:40:26.784Z,96.00
2018-07-02T23:42:55.032Z,96.30
2018-07-02T23:45:23.620Z,97.50
2018-07-02T23:47:51.308Z,98.20
2018-07-02T23:50:19.261Z,98.30
2018-07-02T23:52:47.116Z,98.60
2018-07-02T23:55:14.741Z,98.70
2018-07-02T23:57:42.320Z,98.70
